createdAt,value
2017-01-06T00:00:04.807Z,-5.8
2017-01-06T00:05:03.934Z,-5.8
2017-01-06T00:10:04.295Z,-5.5
2017-01-06T00:15:04.192Z,-5.8
2017-01-06T00:20:04.133Z,-5.8
2017-01-06T00:25:04.888Z,-5.8
2017-01-06T00:30:04.766Z,-5.8
2017-01-06T00:35:04.681Z,-6.0
2017-01-06T00:40:05.044Z,-6.0
2017-01-06T00:45:03.961Z,-6.1
2017-01-06T00:50:03.964Z,-5.8
2017-01-06T00:55:04.900Z,-6.1
2017-01-06T01:00:04.718Z,-6.1
2017-01-06T01:05:04.509Z,-6.1
2017-01-06T01:10:04.662Z,-6.1
2017-01-06T01:15:04.706Z,-6.0
2017-01-06T01:20:04.746Z,-6.0
2017-01-06T01:25:04.716Z,-6.0
2017-01-06T01:30:04.631Z,-5.8
2017-01-06T01:35:04.503Z,-5.8
2017-01-06T01:40:04.436Z,-6.0
2017-01-06T01:45:04.525Z,-6.0
2017-01-06T01:50:04.575Z,-6.0
2017-01-06T01:55:04.451Z,-6.4
2017-01-06T02:00:04.211Z,-6.4
2017-01-06T02:05:04.853Z,-6.4
2017-01-06T02:10:04.009Z,-6.4
2017-01-06T02:15:04.869Z,-6.4
2017-01-06T02:20:04.133Z,-6.4
2017-01-06T02:25:04.046Z,-6.4
2017-01-06T02:30:04.032Z,-6.4
2017-01-06T02:35:04.855Z,-6.5
2017-01-06T02:40:03.999Z,-6.4
2017-01-06T02:45:04.023Z,-6.5
2017-01-06T02:50:04.225Z,-6.5
2017-01-06T02:55:04.280Z,-6.8
2017-01-06T03:00:04.708Z,-6.8
2017-01-06T03:05:09.215Z,-6.8
2017-01-06T03:10:04.168Z,-6.8
2017-01-06T03:15:04.128Z,-6.8
2017-01-06T03:20:04.548Z,-6.5
2017-01-06T03:25:04.417Z,-6.5
2017-01-06T03:30:04.369Z,-6.4
2017-01-06T03:35:04.330Z,-6.5
2017-01-06T03:40:04.502Z,-6.5
2017-01-06T03:45:04.466Z,-6.5
2017-01-06T03:50:04.111Z,-6.5
2017-01-06T03:55:04.819Z,-6.8
2017-01-06T04:00:05.235Z,-7.0
2017-01-06T04:05:05.642Z,-6.8
2017-01-06T04:10:04.426Z,-6.8
2017-01-06T04:15:04.344Z,-6.5
2017-01-06T04:20:04.335Z,-6.5
2017-01-06T04:25:04.264Z,-6.5
2017-01-06T04:30:04.901Z,-6.4
2017-01-06T04:35:03.974Z,-6.8
2017-01-06T04:40:04.172Z,-6.8
2017-01-06T04:45:04.041Z,-6.8
2017-01-06T04:50:04.116Z,-7.0
2017-01-06T04:55:04.004Z,-7.0
2017-01-06T05:00:05.165Z,-7.0
2017-01-06T05:05:04.231Z,-6.8
2017-01-06T05:10:04.620Z,-7.0
2017-01-06T05:15:04.802Z,-7.0
2017-01-06T05:20:04.922Z,-6.8
2017-01-06T05:25:03.952Z,-6.8
2017-01-06T05:30:04.222Z,-7.0
2017-01-06T05:35:04.227Z,-7.0
2017-01-06T05:40:04.513Z,-7.0
2017-01-06T05:45:04.686Z,-7.0
2017-01-06T05:50:04.601Z,-7.0
2017-01-06T05:55:04.478Z,-7.0
2017-01-06T06:00:04.472Z,-7.0
2017-01-06T06:05:04.446Z,-7.0
2017-01-06T06:10:04.861Z,-7.1
2017-01-06T06:15:04.984Z,-7.1
2017-01-06T06:20:04.908Z,-7.1
2017-01-06T06:25:05.087Z,-7.1
2017-01-06T06:30:05.134Z,-7.1
2017-01-06T06:35:04.249Z,-7.0
2017-01-06T06:40:04.373Z,-7.0
2017-01-06T06:45:04.415Z,-7.0
2017-01-06T06:50:04.358Z,-6.8
2017-01-06T06:55:04.195Z,-6.8
2017-01-06T07:00:04.107Z,-6.5
2017-01-06T07:05:03.940Z,-6.4
2017-01-06T07:10:04.260Z,-6.1
2017-01-06T07:15:04.330Z,-6.1
2017-01-06T07:20:04.485Z,-6.0
2017-01-06T07:25:04.381Z,-6.4
2017-01-06T07:30:04.258Z,-6.4
2017-01-06T07:35:04.309Z,-6.1
2017-01-06T07:40:04.238Z,-6.1
2017-01-06T07:45:04.007Z,-6.1
2017-01-06T07:50:04.052Z,-6.1
2017-01-06T07:55:04.722Z,-6.1
2017-01-06T08:00:04.540Z,-6.1
2017-01-06T08:05:04.689Z,-6.1
2017-01-06T08:10:04.842Z,-6.0
2017-01-06T08:15:04.736Z,-6.0
2017-01-06T08:20:04.771Z,-5.8
2017-01-06T08:25:04.714Z,-6.0
2017-01-06T08:30:04.870Z,-5.8
2017-01-06T08:35:04.724Z,-5.8
2017-01-06T08:40:04.865Z,-5.4
2017-01-06T08:45:03.813Z,-5.4
2017-01-06T08:50:03.942Z,-5.1
2017-01-06T08:55:04.724Z,-5.1
2017-01-06T09:00:04.666Z,-4.9
2017-01-06T09:05:04.603Z,-4.9
2017-01-06T09:10:04.632Z,-4.3
2017-01-06T09:15:04.497Z,-4.3
2017-01-06T09:20:04.499Z,-3.2
2017-01-06T09:25:04.514Z,-3.0
2017-01-06T09:30:04.448Z,-1.8
2017-01-06T09:35:04.417Z,-0.8
2017-01-06T09:40:04.512Z,-1.2
2017-01-06T09:45:04.684Z,-1.1
2017-01-06T09:50:04.571Z,0.0
2017-01-06T09:55:04.386Z,0.0
2017-01-06T10:00:04.210Z,0.1
2017-01-06T10:05:04.299Z,-0.8
2017-01-06T10:10:04.635Z,-1.1
2017-01-06T10:15:04.611Z,-1.1
2017-01-06T10:20:04.539Z,-0.6
2017-01-06T10:25:04.348Z,-0.5
2017-01-06T10:30:04.214Z,-1.5
2017-01-06T10:35:04.033Z,-1.2
2017-01-06T10:40:04.404Z,0.0
2017-01-06T10:45:04.227Z,-0.6
2017-01-06T10:50:04.183Z,-1.1
2017-01-06T10:55:04.098Z,-2.2
2017-01-06T11:00:04.939Z,-1.7
2017-01-06T11:05:04.935Z,-1.7
2017-01-06T11:10:04.039Z,-1.1
2017-01-06T11:15:04.001Z,-1.5
2017-01-06T11:20:04.105Z,-1.1
2017-01-06T11:25:04.952Z,-1.1
2017-01-06T11:30:05.029Z,0.0
2017-01-06T11:35:04.204Z,-0.5
2017-01-06T11:40:04.329Z,0.0
2017-01-06T11:45:04.398Z,-0.8
2017-01-06T11:50:04.142Z,-1.7
2017-01-06T11:55:03.999Z,-1.5
2017-01-06T12:00:04.885Z,-1.5
2017-01-06T12:05:04.903Z,-1.5
2017-01-06T12:10:04.351Z,-1.5
2017-01-06T12:15:04.439Z,-1.1
2017-01-06T12:20:04.764Z,-1.5
2017-01-06T12:25:04.813Z,-1.7
2017-01-06T12:30:04.619Z,-1.7
2017-01-06T12:35:04.816Z,-1.5
2017-01-06T12:40:04.805Z,-1.5
2017-01-06T12:45:04.880Z,-1.7
2017-01-06T12:50:03.864Z,-1.5
2017-01-06T12:55:04.055Z,-1.7
2017-01-06T13:00:04.132Z,-1.7
2017-01-06T13:05:04.282Z,-1.5
2017-01-06T13:10:04.720Z,-1.5
2017-01-06T13:15:04.569Z,-1.5
2017-01-06T13:20:04.487Z,-1.2
2017-01-06T13:25:04.521Z,-1.5
2017-01-06T13:30:04.823Z,-1.5
2017-01-06T13:35:04.662Z,-1.7
2017-01-06T13:40:04.815Z,-1.5
2017-01-06T13:45:04.648Z,-1.7
2017-01-06T13:50:05.612Z,-1.7
2017-01-06T13:55:04.092Z,-1.5
2017-01-06T14:00:04.271Z,-1.7
2017-01-06T14:05:04.356Z,-1.7
2017-01-06T14:10:03.884Z,-1.5
2017-01-06T14:15:04.454Z,-0.6
2017-01-06T14:20:04.575Z,-1.5
2017-01-06T14:25:04.571Z,-1.7
2017-01-06T14:30:04.196Z,-1.7
2017-01-06T14:35:04.081Z,-1.7
2017-01-06T14:40:04.059Z,-1.7
2017-01-06T14:45:05.051Z,-1.7
2017-01-06T14:50:11.626Z,-1.7
2017-01-06T14:55:14.492Z,-1.8
2017-01-06T15:00:17.733Z,-1.8
2017-01-06T15:05:14.848Z,-2.0
2017-01-06T15:10:13.936Z,-2.2
2017-01-06T15:15:21.500Z,-2.2
2017-01-06T15:20:14.858Z,-2.2
2017-01-06T15:25:14.645Z,-2.5
2017-01-06T15:30:15.278Z,-2.5
2017-01-06T15:35:16.717Z,-2.5
2017-01-06T15:40:15.623Z,-2.5
2017-01-06T15:45:12.907Z,-2.7
2017-01-06T15:50:04.866Z,-2.7
2017-01-06T15:55:04.021Z,-2.9
2017-01-06T16:00:04.893Z,-2.9
2017-01-06T16:05:04.812Z,-2.9
2017-01-06T16:10:04.199Z,-3.0
2017-01-06T16:15:04.053Z,-3.0
2017-01-06T16:20:03.921Z,-3.0
2017-01-06T16:25:03.924Z,-3.2
2017-01-06T16:30:03.991Z,-3.2
2017-01-06T16:35:05.031Z,-3.2
2017-01-06T16:40:04.419Z,-3.5
2017-01-06T16:45:04.358Z,-3.5
2017-01-06T16:50:04.374Z,-3.2
2017-01-06T16:55:04.285Z,-3.5
2017-01-06T17:00:04.307Z,-3.5
2017-01-06T17:05:04.799Z,-3.7
2017-01-06T17:10:04.134Z,-3.5
2017-01-06T17:15:03.983Z,-3.5
2017-01-06T17:20:03.979Z,-3.5
2017-01-06T17:25:04.672Z,-3.7
2017-01-06T17:30:04.580Z,-3.7
2017-01-06T17:35:04.819Z,-3.7
2017-01-06T17:40:04.144Z,-3.7
2017-01-06T17:45:04.145Z,-3.7
2017-01-06T17:50:04.305Z,-3.7
2017-01-06T17:55:04.422Z,-3.7
2017-01-06T18:00:04.414Z,-3.7
2017-01-06T18:05:04.205Z,-3.5
2017-01-06T18:10:05.322Z,-3.5
2017-01-06T18:15:05.139Z,-3.5
2017-01-06T18:20:03.920Z,-3.5
2017-01-06T18:25:04.549Z,-3.2
2017-01-06T18:30:05.300Z,-3.2
2017-01-06T18:35:04.369Z,-3.2
2017-01-06T18:40:04.008Z,-3.2
2017-01-06T18:45:04.312Z,-3.2
2017-01-06T18:50:04.460Z,-3.2
2017-01-06T18:55:04.706Z,-3.0
2017-01-06T19:00:04.694Z,-3.2
2017-01-06T19:05:04.468Z,-3.2
2017-01-06T19:10:06.629Z,-3.2
2017-01-06T19:15:06.598Z,-3.2
2017-01-06T19:20:06.745Z,-3.2
2017-01-06T19:25:06.958Z,-3.2
2017-01-06T19:30:05.401Z,-3.0
2017-01-06T19:35:06.875Z,-3.0
2017-01-06T19:40:06.339Z,-3.0
2017-01-06T19:45:05.619Z,-3.0
2017-01-06T19:50:06.146Z,-3.2
2017-01-06T19:55:06.091Z,-3.2
2017-01-06T20:00:05.888Z,-3.2
2017-01-06T20:05:06.530Z,-3.2
2017-01-06T20:10:05.687Z,-3.2
2017-01-06T20:15:06.312Z,-3.2
2017-01-06T20:20:06.020Z,-3.2
2017-01-06T20:25:05.604Z,-3.2
2017-01-06T20:30:05.356Z,-3.2
2017-01-06T20:35:07.971Z,-3.2
2017-01-06T20:40:06.084Z,-3.5
2017-01-06T20:45:05.967Z,-3.5
2017-01-06T20:50:05.441Z,-3.5
2017-01-06T20:55:05.936Z,-3.2
2017-01-06T21:00:05.637Z,-3.2
2017-01-06T21:05:05.843Z,-3.2
2017-01-06T21:10:05.221Z,-3.2
2017-01-06T21:15:06.091Z,-3.2
2017-01-06T21:20:05.623Z,-3.2
2017-01-06T21:25:06.304Z,-3.2
2017-01-06T21:30:05.842Z,-3.2
2017-01-06T21:35:06.212Z,-3.0
2017-01-06T21:40:05.474Z,-3.0
2017-01-06T21:45:05.991Z,-3.0
2017-01-06T21:50:05.447Z,-3.0
2017-01-06T21:55:06.041Z,-3.0
2017-01-06T22:00:05.548Z,-3.0
2017-01-06T22:05:06.310Z,-3.0
2017-01-06T22:10:06.175Z,-3.0
2017-01-06T22:15:05.810Z,-3.0
2017-01-06T22:20:05.556Z,-3.0
2017-01-06T22:25:05.649Z,-3.0
2017-01-06T22:30:06.063Z,-3.0
2017-01-06T22:35:05.511Z,-3.0
2017-01-06T22:40:05.535Z,-3.0
2017-01-06T22:45:06.037Z,-2.9
2017-01-06T22:50:06.312Z,-2.9
2017-01-06T22:55:05.673Z,-2.9
2017-01-06T23:00:05.900Z,-2.9
2017-01-06T23:05:05.499Z,-2.9
2017-01-06T23:10:05.946Z,-2.9
2017-01-06T23:15:05.661Z,-2.9
2017-01-06T23:20:06.104Z,-2.9
2017-01-06T23:25:05.434Z,-2.9
2017-01-06T23:30:05.464Z,-2.9
2017-01-06T23:35:06.059Z,-2.9
2017-01-06T23:40:05.792Z,-2.9
2017-01-06T23:45:05.672Z,-3.0
2017-01-06T23:50:05.701Z,-3.0
2017-01-06T23:55:06.095Z,-3.0
